< Typhoon 199426 1994 Season Typhoon 199428 >
Typhoon 199427 (PAT)
General InformationTrack Information on Google MapsDetailed Wind InformationList of All Images || Disaster Info.ResourceGoogle EarthGE AnimationAtom FeedGeoJSON
Detalied Best Track (Time Zone = UTC)
Year Month Day Hour Lat. Long. Pressure (hPa) Wind (kt) Class Image Chart
1994 9 21 00 15.0 167.6 1006 0 2 Image Chart
1994 9 21 06 14.8 166.5 1002 0 2 Image Chart
1994 9 21 12 14.7 165.5 1000 0 2 Image Chart
1994 9 21 18 14.8 164.8 998 35 3 Image Chart
1994 9 22 00 15.7 164.2 998 35 3 Image Chart
1994 9 22 06 16.7 164.1 998 35 3 Image Chart
1994 9 22 12 17.8 164.0 996 40 3 Image Chart
1994 9 22 18 19.0 163.7 994 40 3 Image Chart
1994 9 23 00 20.7 163.1 985 50 4 Image Chart
1994 9 23 06 22.2 162.7 970 65 5 Image Chart
1994 9 23 12 23.3 162.3 965 70 5 Image Chart
1994 9 23 18 24.3 161.8 965 70 5 Image Chart
1994 9 24 00 25.1 161.1 965 70 5 Image Chart
1994 9 24 06 25.7 160.4 965 70 5 Image Chart
1994 9 24 12 26.4 159.5 965 70 5 Image Chart
1994 9 24 18 27.3 158.0 965 70 5 Image Chart
1994 9 25 00 28.2 155.4 975 60 4 Image Chart
1994 9 25 06 28.2 153.0 980 55 4 Image Chart
1994 9 25 12 28.0 151.5 985 50 4 Image Chart
1994 9 25 18 27.5 150.6 990 45 3 Image Chart
1994 9 26 00 27.8 150.7 992 40 3 Image Chart
1994 9 26 06 29.2 151.2 994 35 3 Image Chart
1994 9 26 12 31.3 150.6 994 35 3 Image Chart
1994 9 26 18 32.6 149.7 996 35 3 Image Chart
1994 9 27 00 33.6 149.2 996 35 3 Image Chart
1994 9 27 06 34.3 149.5 996 40 3 Image Chart
1994 9 27 12 35.6 150.7 996 40 3 Image Chart
1994 9 27 18 36.4 151.5 996 35 3 Image Chart
1994 9 28 00 37.6 153.1 996 35 3 Image Chart
1994 9 28 06 38.3 155.0 998 35 3 Image Chart
1994 9 28 12 39.0 157.1 998 35 3 Image Chart
1994 9 28 18 39.0 158.0 1000 0 6 Image Chart
1994 9 29 00 39.5 158.5 1004 0 6 Image Chart
1994 9 29 06 40.0 162.0 1004 0 6 Image Chart
1994 9 29 12 40.5 165.0 1004 0 6 Image Chart
1994 9 29 18 40.5 168.0 1002 0 6 Image Chart
1994 9 30 00 41.0 171.0 1000 0 6 Image Chart
1994 9 30 06 41.0 178.5 992 0 6 Image Chart
1994 9 30 12 42.5 188.0 980 0 6 Image Chart
Japan Meteorological Agency Best Track Data | Correction Date : 1995-01-30
< Typhoon 199426 1994 Season Typhoon 199428 >

Help